Flight Track Log - Related Links

Times and Time Zones

All times are in EDT time to prevent confusion due to time zone crossing. See the ASQ6041 flight status page for this flight to view local times or setup timezone preferences in your user account.

Time Position Orientation Groundspeed Altitude Reporting Facility
EDT Latitude Longitude Course Direction KTS MPH feet Rate Location/Type
Mon 12:08:25 PM 39.8833 -104.5833 80° East 197 227 7,000  Level Denver TRACON
Mon 12:09:31 PM 39.8833 -104.4833 90° East 262 302 8,600 1,429 Climbing Denver TRACON
Mon 12:10:31 PM 39.8667 -104.4000 105° East 266 306 10,000 1,565 Climbing Denver TRACON
Mon 12:11:00 PM 39.9489 -104.1233 85° East  Level Estimated
Mon 12:11:03 PM 39.8739 -104.3386 81° East 270 311 11,000  Level Denver Center
Mon 12:12:00 PM 39.9385 -103.9835 95° East  Level FlightAware Approximate
Mon 12:12:05 PM 39.8733 -104.2306 90° East 301 346 12,100  Level Denver Center
Mon 12:13:00 PM 39.9604 -103.8459 80° East  Level Estimated
Mon 12:13:19 PM 39.8728 -104.0944 90° East 351 404 12,900  Level Denver Center
Mon 12:14:21 PM 39.8711 -103.9228 91° East 390 449 14,100 1,113 Climbing Denver Center
Mon 12:15:23 PM 39.8817 -103.7675 85° East 404 465 15,200 968 Climbing Denver Center
Mon 12:16:25 PM 39.8947 -103.6317 83° East 394 453 16,100 919 Climbing Denver Center
Mon 12:17:27 PM 39.9117 -103.4825 82° East 414 476 17,100 1,065 Climbing Denver Center
Mon 12:18:29 PM 39.9294 -103.3319 81° East 421 484 18,300 1,235 Climbing Denver Center
Mon 12:19:43 PM 39.9489 -103.1544 82° East 413 475 19,900 1,226 Climbing Denver Center
Mon 12:20:46 PM 39.9672 -102.9758 82° East 416 479 21,100 1,056 Climbing Denver Center
Mon 12:21:48 PM 39.9842 -102.8269 82° East 417 480 22,100 968 Climbing Denver Center
Mon 12:22:50 PM 40.0022 -102.6656 82° East 423 487 23,100 968 Climbing Denver Center
Mon 12:23:52 PM 40.0172 -102.5189 82° East 427 491 24,100 1,016 Climbing Denver Center
Mon 12:24:54 PM 40.0358 -102.3478 82° East 426 490 25,200 968 Climbing Denver Center
Mon 12:25:56 PM 40.0508 -102.1997 82° East 429 494 26,100 788 Climbing Denver Center
Mon 12:27:11 PM 40.0708 -102.0017 82° East 433 498 27,000 394 Climbing Denver Center
Mon 12:28:13 PM 40.0864 -101.8481 82° East 445 512 27,000  Level Denver Center
Mon 12:29:15 PM 40.1047 -101.6589 83° East 469 540 27,000  Level Denver Center
Mon 12:30:17 PM 40.1194 -101.4947 83° East 476 548 27,000  Level Denver Center
Mon 12:31:19 PM 40.1386 -101.3017 83° East 482 555 27,000  Level Denver Center
Mon 12:32:21 PM 40.1539 -101.1361 83° East 482 555 27,000  Level Denver Center
Mon 12:33:23 PM 40.1717 -100.9458 83° East 477 549 27,000  Level Denver Center
Mon 12:34:25 PM 40.1864 -100.7831 83° East 475 547 27,000  Level Denver Center
Mon 12:35:27 PM 40.2047 -100.5925 83° East 476 548 27,000  Level Denver Center
Mon 12:36:29 PM 40.2314 -100.4583 75° East 479 551 27,000  Level Denver Center
Mon 12:37:31 PM 40.2742 -100.2431 75° East 481 554 27,000  Level Denver Center
Mon 12:38:33 PM 40.3072 -100.0825 75° East 480 552 27,000  Level Denver Center
Mon 12:39:35 PM 40.3444 -99.8931 75° East 482 555 27,000  Level Denver Center
Mon 12:40:37 PM 40.3783 -99.7214 75° East 483 556 27,000  Level Denver Center
Mon 12:41:39 PM 40.4117 -99.5531 75° East 480 552 27,000  Level Denver Center
Mon 12:42:41 PM 40.4444 -99.3839 76° East 480 552 27,000  Level Denver Center
Mon 12:43:44 PM 40.4781 -99.2139 75° East 482 555 27,000  Level Denver Center
Mon 12:44:30 PM 40.5042 -99.0792 76° East 482 555 27,000  Level Minneapolis Center
Mon 12:45:32 PM 40.5350 -98.9089 77° East 482 555 27,000  Level Minneapolis Center
Mon 12:46:34 PM 40.5747 -98.7050 76° East 483 556 27,000  Level Minneapolis Center
Mon 12:47:36 PM 40.6056 -98.5336 77° East 484 557 27,000 -242 Level Minneapolis Center
Mon 12:48:38 PM 40.6375 -98.3625 76° East 485 558 26,500 -1,306 Descending Minneapolis Center
Mon 12:49:40 PM 40.6683 -98.1936 76° East 481 554 24,300 -2,129 Descending Minneapolis Center
Mon 12:50:42 PM 40.6994 -98.0258 76° East 476 548 22,100 -2,449 Descending Minneapolis Center
Mon 12:51:18 PM 40.6972 -97.8889 91° East 472 543 20,300 -2,613 Descending Minneapolis Center
Mon 12:51:44 PM 40.7344 -97.8283 51° Northeast 466 536 19,400 -2,449 Descending Minneapolis Center
Mon 12:52:07 PM 40.7203 -97.7606 105° East 434 499 18,300 -2,806 Descending Minneapolis Center
Mon 12:52:46 PM 40.7617 -97.6781 56° Northeast 435 501 16,500 -2,951 Descending Minneapolis Center
Mon 12:53:08 PM 40.7483 -97.6153 106° East 408 470 15,300 -2,903 Descending Minneapolis Center
Mon 12:53:48 PM 40.7808 -97.5328 62° Northeast 412 474 13,500 -2,852 Descending Minneapolis Center
Mon 12:54:09 PM 40.7636 -97.4711 110° East 394 453 12,400 -2,419 Descending Minneapolis Center
Mon 12:54:50 PM 40.7956 -97.3931 62° Northeast 393 452 11,000 -2,000 Descending Minneapolis Center
Mon 12:55:09 PM 40.7917 -97.3311 95° East 365 420 10,400 -1,333 Descending Minneapolis Center
Mon 12:55:53 PM 40.8300 -97.2531 57° Northeast 359 413 9,600 -1,082 Descending Minneapolis Center
Mon 12:56:10 PM 40.8189 -97.2158 112° Southeast 316 364 9,300 -1,452 Descending Minneapolis Center
Mon 12:56:55 PM 40.8542 -97.1450 57° Northeast 321 369 8,100 -1,770 Descending Minneapolis Center
Mon 12:57:11 PM 40.8464 -97.1058 105° East 308 354 7,500 -1,742 Descending Minneapolis Center
Mon 12:57:57 PM 40.8806 -97.0389 56° Northeast 307 353 6,300 -1,770 Descending Minneapolis Center
Mon 12:58:12 PM 40.8739 -97.0011 103° East 303 349 5,700 -1,886 Descending Minneapolis Center
Mon 12:59:07 PM 40.8933 -96.9056 75° East 293 337 4,100 -1,376 Descending Minneapolis Center
Mon 01:00:01 PM 40.9228 -96.8353 61° Northeast 290 334 3,200 -1,100 Descending Minneapolis Center
Mon 01:00:07 PM 40.9131 -96.8128 120° Southeast 218 251 3,000 -896 Descending Minneapolis Center
Mon 01:01:08 PM 40.8972 -96.7564 110° East 141 162 2,200 -661 Descending Minneapolis Center
Mon 01:02:05 PM 40.8806 -96.7636 198° South 174 200 1,700 -526 Descending Minneapolis Center

Login

Don't have an account? Register now (free) for customized features, flight alerts, and more!